sensor_id;sensor_type;location;lat;lon;timestamp;P1;P2;P0
55076;PMS7003;40971;44.702;11.030;2023-04-24T00:06:31;13.17;13.17;10.00
55076;PMS7003;40971;44.702;11.030;2023-04-24T00:27:17;15.00;15.00;9.80
55076;PMS7003;40971;44.702;11.030;2023-04-24T00:37:20;17.14;15.71;11.71
55076;PMS7003;40971;44.702;11.030;2023-04-24T00:47:21;15.33;15.33;11.33
55076;PMS7003;40971;44.702;11.030;2023-04-24T00:57:24;13.50;12.50;10.67
55076;PMS7003;40971;44.702;11.030;2023-04-24T01:07:26;19.40;16.80;11.60
55076;PMS7003;40971;44.702;11.030;2023-04-24T01:17:28;17.00;14.33;11.67
55076;PMS7003;40971;44.702;11.030;2023-04-24T01:27:48;16.80;14.60;12.00
55076;PMS7003;40971;44.702;11.030;2023-04-24T01:37:51;19.60;19.60;14.40
55076;PMS7003;40971;44.702;11.030;2023-04-24T01:47:52;24.00;24.00;17.33
55076;PMS7003;40971;44.702;11.030;2023-04-24T01:57:55;20.20;20.20;16.00
55076;PMS7003;40971;44.702;11.030;2023-04-24T02:07:58;25.50;25.50;17.50
55076;PMS7003;40971;44.702;11.030;2023-04-24T02:17:59;29.67;28.00;20.67
55076;PMS7003;40971;44.702;11.030;2023-04-24T02:28:03;30.88;27.00;20.00
55076;PMS7003;40971;44.702;11.030;2023-04-24T02:38:07;29.00;27.50;21.38
55076;PMS7003;40971;44.702;11.030;2023-04-24T02:48:09;32.00;32.00;24.00
55076;PMS7003;40971;44.702;11.030;2023-04-24T02:58:11;35.33;32.33;24.33
55076;PMS7003;40971;44.702;11.030;2023-04-24T03:08:15;31.67;31.67;23.00
55076;PMS7003;40971;44.702;11.030;2023-04-24T03:18:18;37.33;32.33;22.00
55076;PMS7003;40971;44.702;11.030;2023-04-24T03:28:20;43.67;40.00;26.00
55076;PMS7003;40971;44.702;11.030;2023-04-24T03:38:23;34.33;33.33;24.00
55076;PMS7003;40971;44.702;11.030;2023-04-24T03:48:25;41.00;39.00;26.33
55076;PMS7003;40971;44.702;11.030;2023-04-24T03:58:30;49.44;43.22;28.11
55076;PMS7003;40971;44.702;11.030;2023-04-24T04:08:32;41.67;39.00;24.33
55076;PMS7003;40971;44.702;11.030;2023-04-24T04:18:35;48.67;42.00;30.00
55076;PMS7003;40971;44.702;11.030;2023-04-24T04:28:38;49.67;45.33;30.00
55076;PMS7003;40971;44.702;11.030;2023-04-24T04:38:43;52.22;46.78;30.56
55076;PMS7003;40971;44.702;11.030;2023-04-24T04:48:46;50.67;46.00;30.33
55076;PMS7003;40971;44.702;11.030;2023-04-24T04:58:51;46.33;41.89;27.89
55076;PMS7003;40971;44.702;11.030;2023-04-24T05:08:54;52.75;46.75;32.25
55076;PMS7003;40971;44.702;11.030;2023-04-24T05:18:59;57.67;47.00;32.00
55076;PMS7003;40971;44.702;11.030;2023-04-24T05:29:04;62.00;51.44;34.11
55076;PMS7003;40971;44.702;11.030;2023-04-24T05:39:07;61.00;50.33;33.00
55076;PMS7003;40971;44.702;11.030;2023-04-24T05:49:10;60.50;46.75;31.75
55076;PMS7003;40971;44.702;11.030;2023-04-24T05:59:13;60.67;51.33;32.33
55076;PMS7003;40971;44.702;11.030;2023-04-24T06:09:15;51.00;45.00;31.33
55076;PMS7003;40971;44.702;11.030;2023-04-24T06:19:19;67.00;55.67;37.00
55076;PMS7003;40971;44.702;11.030;2023-04-24T06:29:21;62.00;51.33;32.67
55076;PMS7003;40971;44.702;11.030;2023-04-24T06:39:22;59.00;48.33;32.67
55076;PMS7003;40971;44.702;11.030;2023-04-24T06:49:26;49.75;44.63;29.75
55076;PMS7003;40971;44.702;11.030;2023-04-24T06:59:31;49.22;43.22;30.78
55076;PMS7003;40971;44.702;11.030;2023-04-24T07:09:33;74.00;60.67;38.67
55076;PMS7003;40971;44.702;11.030;2023-04-24T07:19:40;61.00;51.67;35.33
55076;PMS7003;40971;44.702;11.030;2023-04-24T07:29:42;62.67;53.33;34.67
55076;PMS7003;40971;44.702;11.030;2023-04-24T07:39:43;62.60;52.80;36.60
55076;PMS7003;40971;44.702;11.030;2023-04-24T07:49:46;70.00;58.33;39.00
55076;PMS7003;40971;44.702;11.030;2023-04-24T07:59:47;57.00;48.00;33.00
55076;PMS7003;40971;44.702;11.030;2023-04-24T08:09:49;50.33;42.33;28.67
55076;PMS7003;40971;44.702;11.030;2023-04-24T08:19:52;35.33;33.00;22.00
55076;PMS7003;40971;44.702;11.030;2023-04-24T08:30:01;30.33;29.33;20.33
55076;PMS7003;40971;44.702;11.030;2023-04-24T08:40:06;38.33;38.33;25.33
55076;PMS7003;40971;44.702;11.030;2023-04-24T08:50:13;32.67;32.00;24.67
55076;PMS7003;40971;44.702;11.030;2023-04-24T09:00:18;39.33;38.33;25.00
55076;PMS7003;40971;44.702;11.030;2023-04-24T09:10:22;37.00;34.00;24.00
55076;PMS7003;40971;44.702;11.030;2023-04-24T09:20:27;30.67;28.33;21.33
55076;PMS7003;40971;44.702;11.030;2023-04-24T09:30:29;15.00;15.00;12.00
55076;PMS7003;40971;44.702;11.030;2023-04-24T09:40:34;15.00;15.00;10.57
55076;PMS7003;40971;44.702;11.030;2023-04-24T09:50:35;20.00;17.50;12.50
55076;PMS7003;40971;44.702;11.030;2023-04-24T10:00:36;21.00;20.33;15.00
55076;PMS7003;40971;44.702;11.030;2023-04-24T10:10:40;20.00;18.00;12.00
55076;PMS7003;40971;44.702;11.030;2023-04-24T10:20:43;17.00;17.00;12.00
55076;PMS7003;40971;44.702;11.030;2023-04-24T10:30:46;20.67;19.00;14.33
55076;PMS7003;40971;44.702;11.030;2023-04-24T10:40:48;17.00;14.67;11.00
55076;PMS7003;40971;44.702;11.030;2023-04-24T10:50:53;12.00;12.00;10.00
55076;PMS7003;40971;44.702;11.030;2023-04-24T11:00:56;13.00;13.00;11.00
55076;PMS7003;40971;44.702;11.030;2023-04-24T11:11:00;14.00;14.00;10.50
55076;PMS7003;40971;44.702;11.030;2023-04-24T11:21:18;17.80;16.80;12.80
55076;PMS7003;40971;44.702;11.030;2023-04-24T11:31:38;17.00;14.00;10.57
55076;PMS7003;40971;44.702;11.030;2023-04-24T11:41:49;15.00;14.00;12.00
55076;PMS7003;40971;44.702;11.030;2023-04-24T11:51:55;16.60;13.40;10.60
55076;PMS7003;40971;44.702;11.030;2023-04-24T12:01:57;16.33;15.33;12.33
55076;PMS7003;40971;44.702;11.030;2023-04-24T12:11:58;12.00;12.00;10.00
55076;PMS7003;40971;44.702;11.030;2023-04-24T12:22:00;15.33;14.67;12.67
55076;PMS7003;40971;44.702;11.030;2023-04-24T12:32:15;12.60;12.60;9.80
55076;PMS7003;40971;44.702;11.030;2023-04-24T12:42:25;15.60;15.60;12.40
55076;PMS7003;40971;44.702;11.030;2023-04-24T12:52:29;15.00;14.67;12.00
55076;PMS7003;40971;44.702;11.030;2023-04-24T13:02:31;14.00;13.67;11.33
55076;PMS7003;40971;44.702;11.030;2023-04-24T13:12:35;15.25;14.50;11.63
55076;PMS7003;40971;44.702;11.030;2023-04-24T13:22:38;21.00;21.00;16.00
55076;PMS7003;40971;44.702;11.030;2023-04-24T13:32:40;21.67;21.67;18.00
55076;PMS7003;40971;44.702;11.030;2023-04-24T13:42:43;19.00;18.00;12.67
55076;PMS7003;40971;44.702;11.030;2023-04-24T13:52:44;17.33;17.33;14.67
55076;PMS7003;40971;44.702;11.030;2023-04-24T14:02:46;24.67;23.67;18.00
55076;PMS7003;40971;44.702;11.030;2023-04-24T14:12:51;20.44;20.44;15.11
55076;PMS7003;40971;44.702;11.030;2023-04-24T14:22:54;20.67;20.67;15.00
55076;PMS7003;40971;44.702;11.030;2023-04-24T14:32:55;14.40;14.40;12.40
55076;PMS7003;40971;44.702;11.030;2023-04-24T14:42:56;11.00;11.00;9.00
55076;PMS7003;40971;44.702;11.030;2023-04-24T14:52:59;16.00;16.00;12.50
55076;PMS7003;40971;44.702;11.030;2023-04-24T15:03:03;11.33;10.33;9.33
55076;PMS7003;40971;44.702;11.030;2023-04-24T15:13:06;10.14;10.14;8.86
55076;PMS7003;40971;44.702;11.030;2023-04-24T15:23:08;9.33;9.33;8.00
55076;PMS7003;40971;44.702;11.030;2023-04-24T15:33:10;10.67;10.67;9.00
55076;PMS7003;40971;44.702;11.030;2023-04-24T15:43:12;10.67;10.67;8.67
55076;PMS7003;40971;44.702;11.030;2023-04-24T15:53:13;11.67;11.67;9.00
55076;PMS7003;40971;44.702;11.030;2023-04-24T16:03:21;1.00;1.00;1.00
55076;PMS7003;40971;44.702;11.030;2023-04-24T16:13:23;0.40;0.40;0.40
55076;PMS7003;40971;44.702;11.030;2023-04-24T16:23:25;1.40;0.40;0.00
55076;PMS7003;40971;44.702;11.030;2023-04-24T16:33:27;0.60;0.60;0.00
55076;PMS7003;40971;44.702;11.030;2023-04-24T16:43:30;0.00;0.00;0.00
55076;PMS7003;40971;44.702;11.030;2023-04-24T16:53:32;0.00;0.00;0.00
55076;PMS7003;40971;44.702;11.030;2023-04-24T17:03:35;0.00;0.00;0.00
55076;PMS7003;40971;44.702;11.030;2023-04-24T17:13:36;1.00;1.00;0.00
55076;PMS7003;40971;44.702;11.030;2023-04-24T17:23:37;0.00;0.00;0.00
55076;PMS7003;40971;44.702;11.030;2023-04-24T17:33:38;0.00;0.00;0.00
55076;PMS7003;40971;44.702;11.030;2023-04-24T17:43:39;0.50;0.50;0.50
55076;PMS7003;40971;44.702;11.030;2023-04-24T17:53:40;0.00;0.00;0.00
55076;PMS7003;40971;44.702;11.030;2023-04-24T18:03:41;6.00;6.00;5.00
55076;PMS7003;40971;44.702;11.030;2023-04-24T18:13:44;19.20;19.00;13.80
55076;PMS7003;40971;44.702;11.030;2023-04-24T18:23:46;6.00;5.50;4.00
55076;PMS7003;40971;44.702;11.030;2023-04-24T18:33:47;5.33;5.33;5.00
55076;PMS7003;40971;44.702;11.030;2023-04-24T18:43:48;5.00;5.00;4.00
55076;PMS7003;40971;44.702;11.030;2023-04-24T18:53:51;2.00;2.00;1.50
55076;PMS7003;40971;44.702;11.030;2023-04-24T19:03:52;0.00;0.00;0.00
55076;PMS7003;40971;44.702;11.030;2023-04-24T19:13:53;1.00;0.00;0.00
55076;PMS7003;40971;44.702;11.030;2023-04-24T19:23:54;0.00;0.00;0.00
55076;PMS7003;40971;44.702;11.030;2023-04-24T19:33:57;0.00;0.00;0.00
55076;PMS7003;40971;44.702;11.030;2023-04-24T19:43:59;0.00;0.00;0.00
55076;PMS7003;40971;44.702;11.030;2023-04-24T19:54:00;0.00;0.00;0.00
55076;PMS7003;40971;44.702;11.030;2023-04-24T20:04:03;0.00;0.00;0.00
55076;PMS7003;40971;44.702;11.030;2023-04-24T20:14:07;0.00;0.00;0.00
55076;PMS7003;40971;44.702;11.030;2023-04-24T20:24:09;0.00;0.00;0.00
55076;PMS7003;40971;44.702;11.030;2023-04-24T20:34:10;0.00;0.00;0.00
55076;PMS7003;40971;44.702;11.030;2023-04-24T21:05:11;0.00;0.00;0.00
55076;PMS7003;40971;44.702;11.030;2023-04-24T21:15:13;1.00;1.00;0.00
55076;PMS7003;40971;44.702;11.030;2023-04-24T21:25:14;0.00;0.00;0.00
55076;PMS7003;40971;44.702;11.030;2023-04-24T21:35:34;1.00;1.00;0.00
55076;PMS7003;40971;44.702;11.030;2023-04-24T21:45:35;1.00;0.67;0.00
55076;PMS7003;40971;44.702;11.030;2023-04-24T21:55:36;1.00;1.00;0.00
55076;PMS7003;40971;44.702;11.030;2023-04-24T22:05:57;0.00;0.00;0.00
55076;PMS7003;40971;44.702;11.030;2023-04-24T22:15:58;1.75;1.00;1.00
55076;PMS7003;40971;44.702;11.030;2023-04-24T22:25:59;0.00;0.00;0.00
55076;PMS7003;40971;44.702;11.030;2023-04-24T22:36:00;1.00;1.00;1.00
55076;PMS7003;40971;44.702;11.030;2023-04-24T22:46:02;1.00;1.00;1.00
55076;PMS7003;40971;44.702;11.030;2023-04-24T22:56:04;0.75;0.75;0.75
55076;PMS7003;40971;44.702;11.030;2023-04-24T23:06:06;0.50;0.50;0.50
55076;PMS7003;40971;44.702;11.030;2023-04-24T23:16:27;0.75;0.75;0.75
55076;PMS7003;40971;44.702;11.030;2023-04-24T23:26:33;3.25;0.25;0.00
55076;PMS7003;40971;44.702;11.030;2023-04-24T23:36:34;1.00;1.00;0.00
55076;PMS7003;40971;44.702;11.030;2023-04-24T23:46:36;3.00;3.00;2.50
55076;PMS7003;40971;44.702;11.030;2023-04-24T23:56:43;1.75;0.25;0.25
